createdAt,value
2018-08-31T00:00:47.596Z,2.72
2018-08-31T00:03:22.480Z,2.60
2018-08-31T00:06:02.084Z,2.50
2018-08-31T00:09:07.013Z,2.50
2018-08-31T00:11:43.982Z,2.70
2018-08-31T00:14:12.260Z,2.67
2018-08-31T00:16:40.508Z,2.50
2018-08-31T00:19:08.727Z,2.80
2018-08-31T00:21:36.988Z,2.70
2018-08-31T00:24:16.607Z,2.95
2018-08-31T00:26:56.166Z,2.33
2018-08-31T00:29:36.549Z,2.47
2018-08-31T00:34:20.496Z,3.12
2018-08-31T00:37:00.201Z,2.17
2018-08-31T00:39:47.196Z,2.40
2018-08-31T00:42:32.560Z,2.90
2018-08-31T00:45:28.608Z,2.80
2018-08-31T00:47:57.700Z,2.83
2018-08-31T00:50:25.919Z,3.10
2018-08-31T00:52:54.228Z,3.02
2018-08-31T00:55:22.464Z,3.45
2018-08-31T00:57:51.145Z,3.58
2018-08-31T01:00:19.905Z,3.40
2018-08-31T01:02:48.253Z,3.15
2018-08-31T01:05:17.163Z,3.87
2018-08-31T01:07:45.484Z,3.10
2018-08-31T01:10:13.739Z,2.40
2018-08-31T01:12:42.069Z,3.02
2018-08-31T01:15:10.684Z,2.80
2018-08-31T01:17:38.903Z,3.23
2018-08-31T01:20:07.867Z,2.65
2018-08-31T01:22:36.214Z,2.90
2018-08-31T01:25:04.448Z,3.08
2018-08-31T01:27:32.668Z,3.22
2018-08-31T01:30:00.900Z,3.08
2018-08-31T01:32:29.154Z,3.20
2018-08-31T01:34:57.380Z,3.10
2018-08-31T01:37:25.593Z,2.90
2018-08-31T01:39:53.837Z,2.80
2018-08-31T01:42:22.073Z,2.50
2018-08-31T01:44:50.304Z,3.10
2018-08-31T01:47:18.513Z,2.62
2018-08-31T01:49:46.740Z,3.27
2018-08-31T01:52:14.994Z,2.40
2018-08-31T01:54:43.238Z,1.95
2018-08-31T01:57:11.451Z,2.40
2018-08-31T01:59:39.736Z,2.20
2018-08-31T02:02:07.969Z,2.35
2018-08-31T02:04:36.220Z,2.27
2018-08-31T02:07:04.476Z,2.10
2018-08-31T02:09:32.716Z,2.67
2018-08-31T02:12:00.943Z,3.10
2018-08-31T02:14:29.181Z,3.10
2018-08-31T02:16:57.413Z,2.70
2018-08-31T02:19:25.672Z,2.60
2018-08-31T02:21:53.916Z,2.70
2018-08-31T02:24:22.152Z,2.75
2018-08-31T02:26:50.401Z,3.05
2018-08-31T02:29:18.630Z,3.02
2018-08-31T02:31:46.860Z,2.30
2018-08-31T02:34:15.076Z,3.10
2018-08-31T02:36:43.327Z,2.98
2018-08-31T02:39:11.600Z,2.70
2018-08-31T02:41:39.812Z,3.10
2018-08-31T02:44:08.028Z,2.58
2018-08-31T02:46:36.279Z,2.75
2018-08-31T02:49:04.492Z,2.65
2018-08-31T02:51:32.747Z,2.23
2018-08-31T02:54:00.968Z,2.80
2018-08-31T02:56:29.216Z,2.62
2018-08-31T02:58:57.460Z,3.45
2018-08-31T03:01:25.684Z,2.60
2018-08-31T03:03:53.912Z,2.40
2018-08-31T03:06:22.172Z,3.12
2018-08-31T03:08:50.392Z,2.50
2018-08-31T03:11:18.629Z,2.50
2018-08-31T03:13:46.852Z,2.95
2018-08-31T03:16:15.082Z,2.83
2018-08-31T03:18:43.332Z,2.77
2018-08-31T03:21:11.563Z,2.40
2018-08-31T03:23:39.836Z,2.22
2018-08-31T03:26:08.052Z,2.80
2018-08-31T03:28:36.320Z,2.08
2018-08-31T03:31:04.544Z,2.70
2018-08-31T03:33:32.780Z,2.30
2018-08-31T03:36:01.018Z,2.15
2018-08-31T03:38:29.281Z,2.80
2018-08-31T03:40:57.496Z,2.37
2018-08-31T03:43:25.733Z,2.20
2018-08-31T03:45:53.956Z,2.60
2018-08-31T03:48:22.255Z,2.72
2018-08-31T03:50:50.503Z,2.70
2018-08-31T03:53:18.777Z,2.80
2018-08-31T03:55:46.976Z,2.40
2018-08-31T03:58:15.188Z,3.10
2018-08-31T04:00:43.446Z,3.00
2018-08-31T04:03:12.085Z,2.37
2018-08-31T04:05:40.329Z,2.83
2018-08-31T04:08:08.648Z,2.20
2018-08-31T04:10:36.914Z,2.70
2018-08-31T04:13:05.239Z,3.20
2018-08-31T04:15:33.489Z,3.25
2018-08-31T04:18:01.758Z,3.10
2018-08-31T04:20:29.988Z,2.77
2018-08-31T04:22:58.204Z,3.30
2018-08-31T04:25:26.445Z,2.93
2018-08-31T04:27:54.685Z,3.20
2018-08-31T04:30:22.924Z,2.90
2018-08-31T04:32:51.143Z,2.40
2018-08-31T04:35:19.383Z,2.85
2018-08-31T04:37:47.625Z,2.65
2018-08-31T04:40:15.893Z,2.20
2018-08-31T04:42:44.192Z,2.40
2018-08-31T04:45:12.416Z,2.60
2018-08-31T04:47:40.650Z,2.25
2018-08-31T04:50:08.897Z,2.80
2018-08-31T04:52:37.147Z,2.70
2018-08-31T04:55:05.368Z,2.87
2018-08-31T04:57:33.597Z,2.90
2018-08-31T05:00:01.901Z,2.90
2018-08-31T05:02:30.129Z,2.98
2018-08-31T05:04:58.351Z,3.40
2018-08-31T05:07:26.583Z,3.00
2018-08-31T05:09:54.800Z,2.70
2018-08-31T05:17:22.254Z,3.00
2018-08-31T05:19:50.485Z,2.90
2018-08-31T05:22:18.770Z,2.80
2018-08-31T05:24:46.984Z,2.70
2018-08-31T05:27:15.281Z,2.60
2018-08-31T05:29:43.529Z,2.80
2018-08-31T05:32:11.874Z,2.70
2018-08-31T05:34:41.237Z,2.80
2018-08-31T05:37:09.518Z,3.12
2018-08-31T05:39:37.747Z,3.30
2018-08-31T05:42:06.016Z,2.90
2018-08-31T05:44:34.236Z,3.60
2018-08-31T05:47:02.484Z,2.80
2018-08-31T05:49:30.713Z,3.20
2018-08-31T05:51:59.476Z,4.00
2018-08-31T05:54:27.740Z,3.27
2018-08-31T05:56:56.021Z,3.63
2018-08-31T05:59:24.298Z,3.40
2018-08-31T06:01:52.577Z,3.73
2018-08-31T06:04:20.856Z,3.98
2018-08-31T06:06:49.116Z,4.40
2018-08-31T06:09:17.413Z,4.10
2018-08-31T06:11:45.699Z,3.95
2018-08-31T06:14:13.976Z,4.00
2018-08-31T06:16:42.245Z,4.00
2018-08-31T06:19:10.524Z,4.23
2018-08-31T06:21:38.794Z,4.35
2018-08-31T06:24:07.129Z,4.08
2018-08-31T06:26:35.408Z,4.40
2018-08-31T06:29:03.755Z,4.62
2018-08-31T06:31:32.005Z,3.90
2018-08-31T06:34:00.339Z,4.30
2018-08-31T06:36:28.542Z,3.80
2018-08-31T06:38:56.885Z,4.30
2018-08-31T06:41:25.136Z,4.20
2018-08-31T06:43:53.396Z,3.45
2018-08-31T06:46:21.650Z,4.35
2018-08-31T06:48:50.669Z,3.63
2018-08-31T06:51:18.963Z,3.90
2018-08-31T06:53:47.228Z,3.95
2018-08-31T06:56:15.482Z,3.87
2018-08-31T06:58:43.770Z,3.90
2018-08-31T07:01:12.045Z,4.10
2018-08-31T07:03:40.403Z,4.30
2018-08-31T07:06:08.663Z,4.47
2018-08-31T07:08:36.905Z,4.47
2018-08-31T07:11:05.213Z,4.30
2018-08-31T07:13:33.452Z,4.10
2018-08-31T07:16:01.731Z,4.22
2018-08-31T07:18:29.969Z,5.10
2018-08-31T07:20:58.232Z,4.00
2018-08-31T07:23:26.488Z,4.60
2018-08-31T07:25:54.773Z,4.47
2018-08-31T07:28:23.046Z,4.15
2018-08-31T07:30:51.335Z,3.70
2018-08-31T07:33:19.587Z,4.20
2018-08-31T07:35:47.874Z,4.67
2018-08-31T07:38:16.080Z,4.30
2018-08-31T07:40:44.329Z,4.20
2018-08-31T07:43:12.556Z,4.97
2018-08-31T07:45:40.888Z,4.90
2018-08-31T07:48:09.132Z,4.07
2018-08-31T07:50:37.392Z,3.62
2018-08-31T07:53:05.681Z,4.30
2018-08-31T07:55:33.962Z,4.40
2018-08-31T07:58:03.014Z,3.92
2018-08-31T08:00:31.307Z,3.70
2018-08-31T08:02:59.533Z,3.87
2018-08-31T08:05:28.085Z,4.27
2018-08-31T08:07:56.361Z,4.20
2018-08-31T08:10:24.664Z,3.70
2018-08-31T08:12:52.978Z,3.50
2018-08-31T08:15:21.229Z,3.12
2018-08-31T08:17:49.500Z,3.50
2018-08-31T08:20:17.768Z,4.10
2018-08-31T08:22:46.109Z,3.90
2018-08-31T08:25:14.358Z,4.00
2018-08-31T08:27:42.618Z,3.80
2018-08-31T08:30:10.926Z,3.47
2018-08-31T08:32:39.242Z,3.43
2018-08-31T08:35:07.702Z,3.60
2018-08-31T08:37:35.973Z,4.20
2018-08-31T08:40:04.268Z,4.10
2018-08-31T08:42:32.627Z,3.90
2018-08-31T08:45:00.886Z,3.77
2018-08-31T08:47:29.345Z,3.73
2018-08-31T08:49:57.592Z,3.90
2018-08-31T08:52:25.864Z,3.93
2018-08-31T08:54:54.093Z,3.60
2018-08-31T08:57:22.407Z,3.77
2018-08-31T08:59:50.659Z,4.10
2018-08-31T09:02:18.928Z,3.37
2018-08-31T09:04:47.157Z,3.50
2018-08-31T09:07:17.156Z,3.20
2018-08-31T09:09:46.224Z,3.03
2018-08-31T09:12:14.481Z,3.25
2018-08-31T09:14:42.708Z,3.30
2018-08-31T09:17:10.944Z,2.85
2018-08-31T09:19:39.653Z,3.30
2018-08-31T09:22:07.877Z,2.95
2018-08-31T09:24:36.192Z,3.30
2018-08-31T09:27:04.388Z,3.27
2018-08-31T09:29:32.622Z,3.05
2018-08-31T09:32:04.989Z,3.23
2018-08-31T09:34:38.208Z,2.98
2018-08-31T09:37:10.108Z,3.30
2018-08-31T09:39:39.009Z,3.00
2018-08-31T09:42:08.490Z,3.80
2018-08-31T09:44:36.762Z,2.90
2018-08-31T09:47:05.088Z,2.75
2018-08-31T09:49:33.325Z,2.63
2018-08-31T09:52:01.660Z,3.00
2018-08-31T09:54:29.916Z,2.67
2018-08-31T09:56:58.397Z,3.20
2018-08-31T09:59:26.628Z,2.83
2018-08-31T10:01:59.003Z,2.92
2018-08-31T10:04:27.309Z,2.85
2018-08-31T10:06:55.569Z,2.80
2018-08-31T10:09:23.800Z,2.50
2018-08-31T10:11:52.000Z,2.98
2018-08-31T10:14:20.244Z,2.50
2018-08-31T10:16:48.516Z,2.45
2018-08-31T10:19:16.785Z,2.02
2018-08-31T10:21:45.073Z,2.30
2018-08-31T10:24:13.288Z,2.10
2018-08-31T10:26:41.524Z,2.30
2018-08-31T10:29:09.728Z,2.20
2018-08-31T10:31:37.996Z,2.50
2018-08-31T10:34:06.223Z,1.90
2018-08-31T10:36:34.460Z,2.00
2018-08-31T10:39:02.764Z,2.10
2018-08-31T10:41:31.011Z,2.40
2018-08-31T10:43:59.228Z,1.80
2018-08-31T10:46:27.536Z,1.90
2018-08-31T10:48:55.692Z,2.60
2018-08-31T10:51:23.935Z,2.22
2018-08-31T10:53:52.136Z,1.60
2018-08-31T10:56:20.360Z,2.00
2018-08-31T10:58:48.560Z,2.00
2018-08-31T11:01:16.788Z,1.60
2018-08-31T11:03:45.034Z,1.98
2018-08-31T11:06:13.268Z,2.00
2018-08-31T11:08:41.480Z,1.72
2018-08-31T11:11:09.699Z,1.80
2018-08-31T11:13:38.132Z,1.72
2018-08-31T11:16:06.433Z,1.90
2018-08-31T11:18:34.684Z,1.92
2018-08-31T11:21:02.884Z,2.10
2018-08-31T11:23:31.148Z,1.92
2018-08-31T11:25:59.347Z,2.20
2018-08-31T11:28:27.563Z,1.80
2018-08-31T11:30:55.761Z,1.70
2018-08-31T11:33:23.988Z,1.70
2018-08-31T11:35:52.198Z,2.00
2018-08-31T11:38:20.420Z,2.00
2018-08-31T11:40:48.649Z,1.90
2018-08-31T11:43:16.922Z,1.82
2018-08-31T11:45:45.110Z,1.90
2018-08-31T11:48:13.321Z,1.77
2018-08-31T11:50:41.544Z,2.30
2018-08-31T11:53:09.775Z,1.80
2018-08-31T11:55:37.971Z,1.72
2018-08-31T11:58:06.196Z,1.80
2018-08-31T12:00:34.412Z,2.02
2018-08-31T12:03:02.639Z,2.50
2018-08-31T12:05:30.828Z,1.90
2018-08-31T12:07:59.071Z,2.50
2018-08-31T12:10:27.260Z,1.87
2018-08-31T12:12:55.488Z,2.30
2018-08-31T12:15:23.708Z,2.60
2018-08-31T12:17:51.999Z,2.60
2018-08-31T12:20:20.221Z,2.10
2018-08-31T12:22:48.428Z,1.92
2018-08-31T12:25:16.670Z,1.70
2018-08-31T12:27:45.437Z,2.10
2018-08-31T12:30:14.527Z,1.93
2018-08-31T12:32:42.896Z,2.33
2018-08-31T12:35:11.208Z,2.30
2018-08-31T12:37:39.482Z,2.00
2018-08-31T12:40:08.469Z,1.85
2018-08-31T12:42:36.742Z,2.30
2018-08-31T12:45:05.260Z,2.10
2018-08-31T12:47:33.460Z,2.00
2018-08-31T12:50:01.713Z,2.08
2018-08-31T12:52:30.252Z,1.82
2018-08-31T12:54:58.547Z,1.80
2018-08-31T12:57:26.792Z,2.15
2018-08-31T12:59:59.645Z,1.77
2018-08-31T13:02:29.065Z,1.70
2018-08-31T13:04:57.317Z,2.43
2018-08-31T13:07:25.556Z,1.80
2018-08-31T13:09:53.829Z,2.30
2018-08-31T13:12:22.052Z,1.82
2018-08-31T13:14:50.312Z,1.70
2018-08-31T13:17:18.625Z,1.90
2018-08-31T13:19:46.994Z,1.85
2018-08-31T13:22:15.215Z,1.55
2018-08-31T13:24:43.512Z,2.00
2018-08-31T13:27:11.736Z,2.22
2018-08-31T13:29:39.956Z,1.70
2018-08-31T13:32:09.084Z,1.90
2018-08-31T13:34:37.419Z,2.35
2018-08-31T13:37:05.996Z,1.67
2018-08-31T13:39:34.371Z,1.87
2018-08-31T13:42:02.738Z,1.80
2018-08-31T13:44:31.269Z,1.80
2018-08-31T13:46:59.924Z,2.20
2018-08-31T13:49:28.408Z,1.90
2018-08-31T13:51:56.756Z,1.77
2018-08-31T13:54:24.990Z,2.00
2018-08-31T13:56:53.549Z,1.82
2018-08-31T13:59:21.756Z,1.70
2018-08-31T14:01:49.972Z,2.30
2018-08-31T14:04:18.228Z,2.03
2018-08-31T14:06:46.549Z,2.55
2018-08-31T14:09:14.773Z,2.30
2018-08-31T14:11:43.088Z,2.47
2018-08-31T14:14:11.525Z,2.17
2018-08-31T14:16:39.797Z,2.10
2018-08-31T14:19:09.472Z,2.40
2018-08-31T14:21:38.093Z,2.50
2018-08-31T14:24:06.591Z,2.30
2018-08-31T14:26:34.864Z,2.35
2018-08-31T14:29:03.117Z,2.20
2018-08-31T14:31:31.404Z,2.02
2018-08-31T14:33:59.645Z,1.70
2018-08-31T14:36:27.979Z,2.10
2018-08-31T14:38:56.204Z,1.86
2018-08-31T14:41:24.432Z,2.17
2018-08-31T14:43:52.839Z,2.00
2018-08-31T14:46:21.165Z,2.40
2018-08-31T14:48:49.403Z,2.10
2018-08-31T14:51:17.672Z,2.40
2018-08-31T14:53:45.940Z,2.10
2018-08-31T14:56:14.144Z,2.60
2018-08-31T14:58:42.651Z,2.37
2018-08-31T15:01:11.048Z,2.10
2018-08-31T15:03:39.709Z,2.00
2018-08-31T15:06:07.967Z,2.20
2018-08-31T15:08:36.383Z,2.10
2018-08-31T15:11:05.248Z,2.05
2018-08-31T15:13:33.770Z,2.30
2018-08-31T15:16:02.324Z,2.25
2018-08-31T15:18:31.078Z,2.12
2018-08-31T15:20:59.500Z,1.92
2018-08-31T15:23:28.426Z,2.07
2018-08-31T15:25:57.102Z,2.47
2018-08-31T15:28:25.430Z,2.50
2018-08-31T15:30:54.044Z,2.40
2018-08-31T15:33:22.820Z,1.95
2018-08-31T15:35:51.058Z,2.10
2018-08-31T15:38:19.294Z,2.10
2018-08-31T15:40:47.523Z,2.20
2018-08-31T15:43:15.748Z,2.20
2018-08-31T15:45:43.996Z,2.00
2018-08-31T15:48:12.201Z,1.90
2018-08-31T15:50:40.471Z,2.17
2018-08-31T15:53:08.703Z,2.02
2018-08-31T15:55:36.932Z,1.90
2018-08-31T15:58:05.224Z,1.80
2018-08-31T16:00:34.112Z,2.17
2018-08-31T16:03:02.318Z,1.90
2018-08-31T16:05:30.564Z,2.00
2018-08-31T16:07:58.816Z,2.07
2018-08-31T16:10:27.055Z,2.00
2018-08-31T16:12:56.625Z,2.10
2018-08-31T16:15:24.909Z,2.02
2018-08-31T16:17:53.104Z,1.83
2018-08-31T16:20:21.675Z,2.10
2018-08-31T16:22:49.964Z,2.00
2018-08-31T16:25:18.195Z,1.87
2018-08-31T16:27:46.480Z,2.10
2018-08-31T16:30:14.721Z,1.77
2018-08-31T16:32:42.952Z,2.12
2018-08-31T16:35:11.216Z,1.60
2018-08-31T16:37:39.444Z,1.98
2018-08-31T16:40:08.468Z,2.00
2018-08-31T16:42:36.712Z,2.00
2018-08-31T16:45:05.037Z,1.70
2018-08-31T16:47:33.281Z,2.10
2018-08-31T16:50:01.500Z,2.20
2018-08-31T16:52:29.764Z,2.98
2018-08-31T16:54:57.997Z,2.90
2018-08-31T16:57:26.252Z,2.30
2018-08-31T16:59:54.473Z,2.10
2018-08-31T17:02:22.757Z,2.75
2018-08-31T17:04:50.959Z,3.00
2018-08-31T17:07:19.188Z,3.43
2018-08-31T17:09:47.400Z,2.93
2018-08-31T17:12:15.648Z,2.10
2018-08-31T17:14:43.881Z,2.93
2018-08-31T17:17:12.526Z,3.35
2018-08-31T17:19:40.747Z,2.60
2018-08-31T17:22:09.064Z,1.77
2018-08-31T17:24:37.267Z,2.02
2018-08-31T17:27:10.956Z,1.60
2018-08-31T17:29:44.540Z,2.02
2018-08-31T17:32:18.474Z,2.00
2018-08-31T17:34:51.988Z,2.05
2018-08-31T17:37:25.516Z,2.20
2018-08-31T17:39:53.788Z,1.70
2018-08-31T17:42:22.015Z,1.90
2018-08-31T17:44:50.248Z,2.20
2018-08-31T17:47:18.475Z,1.90
2018-08-31T17:49:46.844Z,1.93
2018-08-31T17:52:15.456Z,2.20
2018-08-31T17:54:44.078Z,2.00
2018-08-31T17:57:12.380Z,2.10
2018-08-31T17:59:40.639Z,1.80
2018-08-31T18:02:09.352Z,1.85
2018-08-31T18:04:37.612Z,1.62
2018-08-31T18:07:06.113Z,2.80
2018-08-31T18:09:34.353Z,5.50
2018-08-31T18:12:02.685Z,5.45
2018-08-31T18:14:30.904Z,3.03
2018-08-31T18:16:59.185Z,3.33
2018-08-31T18:19:27.467Z,3.50
2018-08-31T18:21:55.679Z,3.33
2018-08-31T18:24:23.968Z,2.97
2018-08-31T18:26:52.171Z,3.52
2018-08-31T18:29:20.416Z,3.20
2018-08-31T18:31:48.655Z,2.77
2018-08-31T18:34:16.884Z,3.40
2018-08-31T18:36:45.119Z,3.70
2018-08-31T18:39:13.496Z,3.85
2018-08-31T18:41:41.704Z,4.73
2018-08-31T18:44:10.161Z,4.15
2018-08-31T18:46:38.433Z,3.90
2018-08-31T18:49:06.700Z,3.02
2018-08-31T18:51:35.044Z,3.80
2018-08-31T18:54:03.301Z,4.53
2018-08-31T18:56:31.499Z,6.30
2018-08-31T18:58:59.772Z,3.60
2018-08-31T19:01:28.057Z,2.17
2018-08-31T19:03:56.301Z,3.10
2018-08-31T19:06:24.528Z,3.80
2018-08-31T19:08:52.761Z,3.90
2018-08-31T19:11:20.961Z,2.60
2018-08-31T19:13:49.256Z,2.53
2018-08-31T19:16:17.463Z,2.60
2018-08-31T19:18:45.717Z,3.08
2018-08-31T19:21:13.909Z,3.50
2018-08-31T19:23:42.128Z,5.10
2018-08-31T19:26:10.363Z,3.90
2018-08-31T19:28:38.593Z,2.67
2018-08-31T19:31:07.128Z,3.70
2018-08-31T19:33:35.381Z,3.00
2018-08-31T19:36:03.600Z,3.40
2018-08-31T19:38:32.004Z,3.20
2018-08-31T19:41:00.271Z,2.70
2018-08-31T19:43:28.501Z,2.50
2018-08-31T19:45:56.713Z,2.72
2018-08-31T19:48:24.957Z,2.58
2018-08-31T19:50:53.169Z,2.00
2018-08-31T19:53:21.435Z,1.90
2018-08-31T19:55:49.655Z,2.30
2018-08-31T19:58:17.892Z,1.80
2018-08-31T20:00:46.100Z,1.90
2018-08-31T20:03:14.369Z,2.40
2018-08-31T20:05:42.620Z,2.30
2018-08-31T20:08:10.868Z,2.17
2018-08-31T20:10:39.828Z,2.00
2018-08-31T20:13:08.057Z,1.80
2018-08-31T20:15:36.280Z,2.43
2018-08-31T20:18:04.529Z,2.47
2018-08-31T20:20:32.800Z,4.13
2018-08-31T20:23:01.055Z,5.53
2018-08-31T20:25:29.292Z,6.20
2018-08-31T20:27:58.273Z,4.90
2018-08-31T20:30:26.508Z,4.25
2018-08-31T20:32:54.720Z,2.77
2018-08-31T20:35:23.026Z,3.33
2018-08-31T20:37:51.248Z,3.20
2018-08-31T20:40:19.538Z,2.95
2018-08-31T20:42:47.722Z,2.80
2018-08-31T20:45:15.959Z,3.30
2018-08-31T20:47:44.947Z,3.10
2018-08-31T20:50:13.196Z,3.50
2018-08-31T20:52:41.424Z,3.60
2018-08-31T20:55:09.724Z,3.52
2018-08-31T20:57:37.940Z,4.67
2018-08-31T21:00:06.816Z,4.45
2018-08-31T21:02:35.084Z,4.80
2018-08-31T21:05:03.331Z,3.70
2018-08-31T21:07:32.492Z,3.00
2018-08-31T21:10:00.736Z,2.77
2018-08-31T21:12:29.013Z,2.53
2018-08-31T21:14:57.256Z,3.00
2018-08-31T21:17:25.500Z,2.80
2018-08-31T21:19:53.733Z,3.10
2018-08-31T21:22:21.940Z,2.77
2018-08-31T21:24:50.184Z,3.30
2018-08-31T21:27:19.316Z,3.30
2018-08-31T21:29:47.532Z,3.50
2018-08-31T21:32:15.820Z,3.27
2018-08-31T21:34:43.989Z,2.98
2018-08-31T21:37:12.188Z,3.33
2018-08-31T21:39:40.411Z,2.90
2018-08-31T21:42:08.812Z,2.90
2018-08-31T21:44:36.962Z,3.30
2018-08-31T21:47:05.199Z,2.63
2018-08-31T21:49:33.563Z,3.08
2018-08-31T21:52:01.779Z,3.20
2018-08-31T21:54:30.260Z,3.20
2018-08-31T21:56:58.463Z,3.00
2018-08-31T21:59:26.648Z,3.10
2018-08-31T22:01:56.027Z,2.97
2018-08-31T22:04:24.868Z,2.80
2018-08-31T22:06:53.172Z,2.65
2018-08-31T22:09:21.424Z,3.00
2018-08-31T22:11:49.639Z,2.90
2018-08-31T22:14:17.845Z,2.70
2018-08-31T22:16:46.720Z,2.90
2018-08-31T22:19:15.028Z,2.70
2018-08-31T22:21:43.803Z,2.60
2018-08-31T22:24:12.440Z,2.80
2018-08-31T22:26:40.663Z,2.52
2018-08-31T22:29:08.863Z,2.80
2018-08-31T22:31:37.083Z,2.60
2018-08-31T22:34:05.288Z,2.67
2018-08-31T22:36:33.499Z,2.60
2018-08-31T22:39:01.704Z,2.60
2018-08-31T22:41:31.217Z,2.60
2018-08-31T22:44:01.385Z,2.83
2018-08-31T22:46:30.831Z,2.60
2018-08-31T22:49:01.133Z,2.52
2018-08-31T22:51:30.794Z,2.43
2018-08-31T22:54:00.771Z,2.70
2018-08-31T22:56:30.256Z,2.50
2018-08-31T22:59:00.540Z,2.70
2018-08-31T23:01:33.030Z,2.77
2018-08-31T23:04:02.698Z,2.42
2018-08-31T23:06:33.094Z,2.90
2018-08-31T23:09:01.353Z,2.98
2018-08-31T23:11:29.580Z,2.47
2018-08-31T23:13:57.808Z,2.50
2018-08-31T23:16:26.050Z,2.95
2018-08-31T23:18:54.269Z,2.70
2018-08-31T23:21:22.520Z,2.40
2018-08-31T23:23:50.724Z,2.77
2018-08-31T23:26:19.160Z,2.47
2018-08-31T23:28:47.372Z,2.85
2018-08-31T23:31:15.615Z,2.70
2018-08-31T23:33:43.860Z,3.02
2018-08-31T23:36:12.103Z,2.80
2018-08-31T23:38:40.323Z,2.70
2018-08-31T23:41:08.843Z,3.37
2018-08-31T23:43:37.039Z,3.00
2018-08-31T23:46:05.272Z,2.92
2018-08-31T23:48:33.497Z,3.27
2018-08-31T23:51:01.746Z,3.35
2018-08-31T23:53:29.968Z,2.95
2018-08-31T23:55:58.192Z,2.90
2018-08-31T23:58:26.395Z,3.20
